Santa Isabel, Brazil
Current Conditions -  °F | °C
As of 3:00 PM on Friday 31 Oct 2014 (Local Time) from SBAN Reporting Station
Broken Clouds Broken Clouds  
Wind Chill: 73°   Ceiling: 1600
Heat Index: 73°   Visibility: 6mi
Dew Point: 64°   Wind: 3mph
Humidity: 73%   Direction: 350°N
Pressure: 30.06"   Gusts: NA
Location:  15.3°S, 49.43°W
Report Text: SBAN 311700Z 35003KT 9999 BKN016 FEW030TCU 23/18 Q1018
Loading
Personal Weather Stations






























Interactive Weather Map
Tropical Storm Tracking
New forecast layout! Learn more

10-Day Weather Forecast

Advertisements
Track Severe Weather on mobile